createdAt,value
2023-12-29T00:00:59.838Z,98.51
2023-12-29T00:03:01.571Z,99.01
2023-12-29T00:05:03.614Z,98.82
2023-12-29T00:07:05.247Z,98.32
2023-12-29T00:09:08.250Z,98.39
2023-12-29T00:11:17.613Z,99.04
2023-12-29T00:13:19.209Z,100.00
2023-12-29T00:15:20.753Z,100.00
2023-12-29T00:17:22.368Z,100.00
2023-12-29T00:19:24.067Z,100.00
2023-12-29T00:21:25.687Z,100.00
2023-12-29T00:23:27.189Z,100.00
2023-12-29T00:25:30.204Z,100.00
2023-12-29T00:27:31.777Z,100.00
2023-12-29T00:29:33.385Z,100.00
2023-12-29T00:31:34.992Z,99.92
2023-12-29T00:33:36.735Z,99.24
2023-12-29T00:35:38.553Z,99.36
2023-12-29T00:37:40.122Z,98.72
2023-12-29T00:39:41.721Z,98.97
2023-12-29T00:41:44.721Z,98.68
2023-12-29T00:43:46.331Z,98.85
2023-12-29T00:45:47.926Z,98.67
2023-12-29T00:47:49.661Z,98.96
2023-12-29T00:49:51.298Z,98.24
2023-12-29T00:51:52.932Z,97.71
2023-12-29T00:53:54.516Z,98.56
2023-12-29T00:55:56.192Z,99.33
2023-12-29T00:57:59.358Z,98.67
2023-12-29T01:00:01.589Z,98.85
2023-12-29T01:02:03.386Z,98.27
2023-12-29T01:04:05.207Z,98.65
2023-12-29T01:06:06.879Z,98.58
2023-12-29T01:08:08.470Z,99.51
2023-12-29T01:10:10.252Z,99.48
2023-12-29T01:12:12.039Z,99.20
2023-12-29T01:14:15.035Z,99.32
2023-12-29T01:16:16.642Z,99.58
2023-12-29T01:18:18.306Z,100.00
2023-12-29T01:20:19.852Z,100.00
2023-12-29T01:22:21.483Z,99.92
2023-12-29T01:24:29.737Z,99.98
2023-12-29T01:26:38.026Z,99.30
2023-12-29T01:28:40.002Z,99.49
2023-12-29T01:30:43.497Z,99.17
2023-12-29T01:32:45.456Z,98.34
2023-12-29T01:34:47.248Z,98.50
2023-12-29T01:36:48.989Z,99.36
2023-12-29T01:38:50.599Z,98.82
2023-12-29T01:40:52.254Z,98.06
2023-12-29T01:42:53.843Z,98.65
2023-12-29T01:44:55.495Z,98.36
2023-12-29T01:47:01.106Z,97.04
2023-12-29T01:49:02.906Z,97.55
2023-12-29T01:51:05.074Z,97.26
2023-12-29T01:53:06.714Z,97.31
2023-12-29T01:55:13.602Z,98.31
2023-12-29T01:57:15.603Z,98.36
2023-12-29T01:59:25.162Z,98.19
2023-12-29T02:01:28.944Z,98.73
2023-12-29T02:03:31.996Z,99.07
2023-12-29T02:05:35.424Z,98.29
2023-12-29T02:07:37.463Z,98.44
2023-12-29T02:09:40.035Z,98.33
2023-12-29T02:11:41.599Z,99.88
2023-12-29T02:13:43.182Z,99.02
2023-12-29T02:15:47.956Z,99.03
2023-12-29T02:18:03.651Z,98.33
2023-12-29T02:20:09.219Z,98.33
2023-12-29T02:22:12.172Z,97.79
2023-12-29T02:24:13.840Z,98.09
2023-12-29T02:26:19.061Z,97.29
2023-12-29T02:28:26.090Z,97.31
2023-12-29T02:30:34.019Z,98.68
2023-12-29T02:32:39.570Z,98.95
2023-12-29T02:34:42.336Z,98.96
2023-12-29T02:36:45.547Z,99.19
2023-12-29T02:38:47.348Z,100.00
2023-12-29T02:40:49.191Z,100.00
2023-12-29T02:42:52.128Z,100.00
2023-12-29T02:44:53.679Z,100.00
2023-12-29T02:46:55.307Z,100.00
2023-12-29T02:48:56.939Z,100.00
2023-12-29T02:50:58.586Z,100.00
2023-12-29T02:53:00.167Z,100.00
2023-12-29T02:55:01.804Z,100.00
2023-12-29T02:57:03.514Z,100.00
2023-12-29T02:59:06.383Z,100.00
2023-12-29T03:01:08.226Z,100.00
2023-12-29T03:03:09.888Z,100.00
2023-12-29T03:05:11.459Z,100.00
2023-12-29T03:07:12.990Z,100.00
2023-12-29T03:09:14.534Z,100.00
2023-12-29T03:11:16.083Z,100.00
2023-12-29T03:13:17.711Z,100.00
2023-12-29T03:15:20.640Z,100.00
2023-12-29T03:17:22.171Z,100.00
2023-12-29T03:19:23.954Z,100.00
2023-12-29T03:21:25.482Z,100.00
2023-12-29T03:23:27.005Z,100.00
2023-12-29T03:25:28.520Z,100.00
2023-12-29T03:27:30.074Z,100.00
2023-12-29T03:29:31.660Z,100.00
2023-12-29T03:31:34.706Z,100.00
2023-12-29T03:33:36.399Z,100.00
2023-12-29T03:35:38.072Z,100.00
2023-12-29T03:37:39.625Z,100.00
2023-12-29T03:39:41.257Z,100.00
2023-12-29T03:41:42.784Z,100.00
2023-12-29T03:43:44.407Z,100.00
2023-12-29T03:45:46.069Z,100.00
2023-12-29T03:47:49.145Z,100.00
2023-12-29T03:49:50.836Z,100.00
2023-12-29T03:51:52.416Z,100.00
2023-12-29T03:53:53.945Z,100.00
2023-12-29T03:55:55.491Z,100.00
2023-12-29T03:57:57.139Z,100.00
2023-12-29T03:59:58.826Z,100.00
2023-12-29T04:02:00.439Z,100.00
2023-12-29T04:04:03.523Z,100.00
2023-12-29T04:06:05.482Z,100.00
2023-12-29T04:08:07.401Z,100.00
2023-12-29T04:10:09.213Z,100.00
2023-12-29T04:12:10.803Z,100.00
2023-12-29T04:14:12.528Z,100.00
2023-12-29T04:16:14.138Z,100.00
2023-12-29T04:18:15.842Z,100.00
2023-12-29T04:20:18.756Z,100.00
2023-12-29T04:22:20.247Z,100.00
2023-12-29T04:24:21.737Z,100.00
2023-12-29T04:26:23.254Z,100.00
2023-12-29T04:28:24.787Z,100.00
2023-12-29T04:30:26.405Z,100.00
2023-12-29T04:32:28.046Z,100.00
2023-12-29T04:34:29.740Z,100.00
2023-12-29T04:36:32.746Z,100.00
2023-12-29T04:38:34.664Z,100.00
2023-12-29T04:40:37.138Z,100.00
2023-12-29T04:42:38.665Z,100.00
2023-12-29T04:44:40.272Z,100.00
2023-12-29T04:46:41.779Z,100.00
2023-12-29T04:48:43.387Z,100.00
2023-12-29T04:50:44.959Z,100.00
2023-12-29T04:52:48.136Z,100.00
2023-12-29T04:54:50.903Z,100.00
2023-12-29T04:56:53.036Z,100.00
2023-12-29T04:58:54.652Z,100.00
2023-12-29T05:00:56.273Z,100.00
2023-12-29T05:02:57.829Z,100.00
2023-12-29T05:04:59.418Z,100.00
2023-12-29T05:07:00.972Z,100.00
2023-12-29T05:09:03.997Z,100.00
2023-12-29T05:11:05.586Z,100.00
2023-12-29T05:13:07.147Z,100.00
2023-12-29T05:15:09.235Z,100.00
2023-12-29T05:17:10.745Z,100.00
2023-12-29T05:19:12.397Z,100.00
2023-12-29T05:21:17.359Z,100.00
2023-12-29T05:23:18.922Z,100.00
2023-12-29T05:25:21.797Z,100.00
2023-12-29T05:27:23.324Z,100.00
2023-12-29T05:29:24.817Z,100.00
2023-12-29T05:31:26.515Z,100.00
2023-12-29T05:33:28.169Z,100.00
2023-12-29T05:35:29.721Z,100.00
2023-12-29T05:37:31.306Z,100.00
2023-12-29T05:39:33.062Z,100.00
2023-12-29T05:41:36.112Z,100.00
2023-12-29T05:43:37.703Z,100.00
2023-12-29T05:45:39.358Z,100.00
2023-12-29T05:47:41.050Z,100.00
2023-12-29T05:49:42.756Z,100.00
2023-12-29T05:51:45.079Z,100.00
2023-12-29T05:53:46.730Z,100.00
2023-12-29T05:55:48.348Z,100.00
2023-12-29T05:57:51.408Z,100.00
2023-12-29T05:59:53.013Z,100.00
2023-12-29T06:01:54.788Z,100.00
2023-12-29T06:03:56.496Z,100.00
2023-12-29T06:05:58.123Z,100.00
2023-12-29T06:07:59.948Z,100.00
2023-12-29T06:10:01.764Z,100.00
2023-12-29T06:12:03.755Z,100.00
2023-12-29T06:14:07.016Z,100.00
2023-12-29T06:16:08.755Z,100.00
2023-12-29T06:18:10.500Z,100.00
2023-12-29T06:20:12.508Z,100.00
2023-12-29T06:22:14.200Z,100.00
2023-12-29T06:24:15.878Z,100.00
2023-12-29T06:26:17.696Z,100.00
2023-12-29T06:28:19.296Z,100.00
2023-12-29T06:30:22.364Z,100.00
2023-12-29T06:32:24.052Z,100.00
2023-12-29T06:34:25.842Z,100.00
2023-12-29T06:36:27.513Z,100.00
2023-12-29T06:38:29.242Z,100.00
2023-12-29T06:40:30.822Z,100.00
2023-12-29T06:42:32.624Z,100.00
2023-12-29T06:44:34.261Z,100.00
2023-12-29T06:46:39.515Z,100.00
2023-12-29T06:48:41.337Z,100.00
2023-12-29T06:50:43.126Z,100.00
2023-12-29T06:52:44.751Z,100.00
2023-12-29T06:54:46.422Z,100.00
2023-12-29T06:56:48.113Z,100.00
2023-12-29T06:58:49.757Z,100.00
2023-12-29T07:00:51.376Z,100.00
2023-12-29T07:02:54.410Z,100.00
2023-12-29T07:04:56.073Z,100.00
2023-12-29T07:06:57.742Z,100.00
2023-12-29T07:08:59.393Z,100.00
2023-12-29T07:11:01.039Z,100.00
2023-12-29T07:13:02.661Z,100.00
2023-12-29T07:15:05.419Z,100.00
2023-12-29T07:17:07.100Z,100.00
2023-12-29T07:19:10.180Z,100.00
2023-12-29T07:21:11.877Z,100.00
2023-12-29T07:23:13.587Z,100.00
2023-12-29T07:25:15.398Z,100.00
2023-12-29T07:27:17.065Z,100.00
2023-12-29T07:29:18.668Z,100.00
2023-12-29T07:31:20.356Z,100.00
2023-12-29T07:33:22.462Z,100.00
2023-12-29T07:35:25.607Z,100.00
2023-12-29T07:37:27.248Z,100.00
2023-12-29T07:39:28.861Z,100.00
2023-12-29T07:41:30.465Z,100.00
2023-12-29T07:43:32.443Z,100.00
2023-12-29T07:45:34.074Z,100.00
2023-12-29T07:47:35.750Z,100.00
2023-12-29T07:49:37.461Z,100.00
2023-12-29T07:51:45.465Z,100.00
2023-12-29T07:53:47.114Z,100.00
2023-12-29T07:55:48.766Z,100.00
2023-12-29T07:57:50.352Z,100.00
2023-12-29T07:59:51.920Z,100.00
2023-12-29T08:01:53.516Z,100.00
2023-12-29T08:03:55.376Z,100.00
2023-12-29T08:05:57.042Z,100.00
2023-12-29T08:08:00.164Z,100.00
2023-12-29T08:10:02.135Z,100.00
2023-12-29T08:12:04.132Z,100.00
2023-12-29T08:14:05.690Z,100.00
2023-12-29T08:16:07.395Z,100.00
2023-12-29T08:18:09.187Z,100.00
2023-12-29T08:20:11.708Z,100.00
2023-12-29T08:22:13.240Z,100.00
2023-12-29T08:24:16.157Z,100.00
2023-12-29T08:26:17.739Z,100.00
2023-12-29T08:28:19.420Z,100.00
2023-12-29T08:30:21.015Z,100.00
2023-12-29T08:32:22.638Z,100.00
2023-12-29T08:34:26.632Z,100.00
2023-12-29T08:36:29.668Z,100.00
2023-12-29T08:38:31.272Z,100.00
2023-12-29T08:40:34.286Z,100.00
2023-12-29T08:42:35.815Z,100.00
2023-12-29T08:44:37.337Z,100.00
2023-12-29T08:46:38.875Z,100.00
2023-12-29T08:48:40.461Z,100.00
2023-12-29T08:50:42.212Z,100.00
2023-12-29T08:52:43.831Z,100.00
2023-12-29T08:54:45.360Z,100.00
2023-12-29T08:56:48.232Z,100.00
2023-12-29T08:58:49.768Z,100.00
2023-12-29T09:00:51.362Z,100.00
2023-12-29T09:02:52.907Z,100.00
2023-12-29T09:04:54.487Z,100.00
2023-12-29T09:06:56.071Z,100.00
2023-12-29T09:08:57.620Z,100.00
2023-12-29T09:10:59.141Z,100.00
2023-12-29T09:13:02.020Z,100.00
2023-12-29T09:15:04.314Z,100.00
2023-12-29T09:17:05.835Z,100.00
2023-12-29T09:19:18.101Z,100.00
2023-12-29T09:21:28.698Z,100.00
2023-12-29T09:23:30.236Z,100.00
2023-12-29T09:25:31.947Z,100.00
2023-12-29T09:27:33.584Z,100.00
2023-12-29T09:29:37.450Z,100.00
2023-12-29T09:31:38.792Z,100.00
2023-12-29T09:33:40.384Z,100.00
2023-12-29T09:35:42.003Z,100.00
2023-12-29T09:37:43.807Z,100.00
2023-12-29T09:39:45.352Z,100.00
2023-12-29T09:41:47.877Z,100.00
2023-12-29T09:43:50.098Z,100.00
2023-12-29T09:45:53.601Z,100.00
2023-12-29T09:47:57.723Z,100.00
2023-12-29T09:49:59.671Z,100.00
2023-12-29T09:52:03.277Z,100.00
2023-12-29T09:54:05.248Z,100.00
2023-12-29T09:56:09.310Z,100.00
2023-12-29T09:58:13.310Z,100.00
2023-12-29T10:00:16.986Z,100.00
2023-12-29T10:02:21.558Z,100.00
2023-12-29T10:04:23.192Z,100.00
2023-12-29T10:06:26.184Z,100.00
2023-12-29T10:08:28.580Z,100.00
2023-12-29T10:10:31.693Z,100.00
2023-12-29T10:12:34.280Z,100.00
2023-12-29T10:14:54.399Z,100.00
2023-12-29T10:17:02.053Z,100.00
2023-12-29T10:19:17.506Z,100.00
2023-12-29T10:21:27.976Z,100.00
2023-12-29T10:23:37.246Z,100.00
2023-12-29T10:25:38.729Z,100.00
2023-12-29T10:27:41.010Z,100.00
2023-12-29T10:29:42.586Z,100.00
2023-12-29T10:31:44.271Z,100.00
2023-12-29T10:33:45.978Z,100.00
2023-12-29T10:35:59.505Z,100.00
2023-12-29T10:38:09.533Z,100.00
2023-12-29T10:40:18.263Z,100.00
2023-12-29T10:42:19.849Z,100.00
2023-12-29T10:44:21.434Z,100.00
2023-12-29T10:46:26.224Z,100.00
2023-12-29T10:48:27.905Z,100.00
2023-12-29T10:50:29.766Z,100.00
2023-12-29T10:52:33.253Z,100.00
2023-12-29T10:54:34.780Z,100.00
2023-12-29T10:56:36.346Z,100.00
2023-12-29T10:58:37.838Z,100.00
2023-12-29T11:00:39.417Z,100.00
2023-12-29T11:02:41.438Z,100.00
2023-12-29T11:04:42.996Z,100.00
2023-12-29T11:06:45.821Z,100.00
2023-12-29T11:08:48.766Z,100.00
2023-12-29T11:10:51.033Z,100.00
2023-12-29T11:12:53.375Z,100.00
2023-12-29T11:14:54.955Z,100.00
2023-12-29T11:16:58.566Z,100.00
2023-12-29T11:19:01.590Z,100.00
2023-12-29T11:21:03.486Z,100.00
2023-12-29T11:23:07.172Z,100.00
2023-12-29T11:25:10.539Z,100.00
2023-12-29T11:27:13.130Z,100.00
2023-12-29T11:29:15.866Z,100.00
2023-12-29T11:31:17.816Z,100.00
2023-12-29T11:33:24.330Z,99.04
2023-12-29T11:35:31.712Z,96.51
2023-12-29T11:37:44.149Z,95.40
2023-12-29T11:39:53.564Z,95.74
2023-12-29T11:42:06.754Z,95.07
2023-12-29T11:44:08.588Z,93.41
2023-12-29T11:46:33.674Z,91.57
2023-12-29T11:48:54.401Z,91.82
2023-12-29T11:50:55.958Z,92.94
2023-12-29T11:52:57.724Z,92.06
2023-12-29T11:55:08.758Z,91.55
2023-12-29T11:57:11.668Z,90.14
2023-12-29T11:59:16.881Z,88.99
2023-12-29T12:01:36.212Z,88.91
2023-12-29T12:03:37.975Z,88.58
2023-12-29T12:05:46.762Z,88.35
2023-12-29T12:07:58.807Z,88.53
2023-12-29T12:10:29.979Z,87.99
2023-12-29T12:12:44.058Z,86.73
2023-12-29T12:14:51.061Z,86.28
2023-12-29T12:16:52.591Z,86.06
2023-12-29T12:18:54.639Z,83.73
2023-12-29T12:20:56.862Z,83.78
2023-12-29T12:22:59.997Z,83.30
2023-12-29T12:25:02.583Z,83.88
2023-12-29T12:27:04.633Z,84.02
2023-12-29T12:29:08.494Z,84.07
2023-12-29T12:31:09.906Z,85.00
2023-12-29T12:33:14.031Z,85.15
2023-12-29T12:35:17.601Z,85.79
2023-12-29T12:37:21.628Z,85.45
2023-12-29T12:39:23.392Z,82.87
2023-12-29T12:41:26.096Z,83.39
2023-12-29T12:43:30.286Z,83.56
2023-12-29T12:45:38.459Z,81.91
2023-12-29T12:47:46.633Z,79.81
2023-12-29T12:49:48.391Z,79.59
2023-12-29T12:51:50.996Z,79.74
2023-12-29T12:53:52.843Z,79.14
2023-12-29T12:55:54.949Z,78.04
2023-12-29T12:57:56.584Z,77.28
2023-12-29T13:00:00.217Z,78.53
2023-12-29T13:02:05.173Z,78.01
2023-12-29T13:04:08.411Z,78.03
2023-12-29T13:06:10.545Z,77.49
2023-12-29T13:08:13.001Z,77.46
2023-12-29T13:10:14.671Z,76.85
2023-12-29T13:12:16.332Z,75.48
2023-12-29T13:14:21.701Z,74.91
2023-12-29T13:16:29.942Z,75.35
2023-12-29T13:18:33.268Z,75.65
2023-12-29T13:20:44.502Z,75.13
2023-12-29T13:22:47.964Z,75.02
2023-12-29T13:24:49.792Z,76.80
2023-12-29T13:26:53.576Z,76.28
2023-12-29T13:28:55.671Z,76.19
2023-12-29T13:30:57.724Z,76.36
2023-12-29T13:33:00.157Z,76.29
2023-12-29T13:35:09.353Z,75.95
2023-12-29T13:37:18.798Z,76.56
2023-12-29T13:39:30.542Z,75.15
2023-12-29T13:41:34.532Z,74.89
2023-12-29T13:43:39.170Z,75.85
2023-12-29T13:45:43.827Z,75.50
2023-12-29T13:47:47.543Z,73.48
2023-12-29T13:49:49.558Z,73.89
2023-12-29T13:51:52.870Z,73.91
2023-12-29T13:54:00.644Z,72.60
2023-12-29T13:56:09.037Z,73.40
2023-12-29T13:58:11.045Z,73.24
2023-12-29T14:00:17.719Z,74.09
2023-12-29T14:02:28.205Z,75.09
2023-12-29T14:04:29.908Z,75.78
2023-12-29T14:06:38.520Z,76.37
2023-12-29T14:08:45.771Z,75.45
2023-12-29T14:10:47.450Z,75.24
2023-12-29T14:12:49.217Z,75.37
2023-12-29T14:14:50.813Z,74.76
2023-12-29T14:16:52.934Z,74.38
2023-12-29T14:18:55.574Z,74.34
2023-12-29T14:20:57.214Z,75.05
2023-12-29T14:23:03.216Z,75.78
2023-12-29T14:25:07.847Z,76.08
2023-12-29T14:27:13.469Z,76.14
2023-12-29T14:29:14.999Z,76.62
2023-12-29T14:31:16.667Z,75.15
2023-12-29T14:33:18.389Z,76.23
2023-12-29T14:35:19.987Z,76.00
2023-12-29T14:37:21.854Z,75.38
2023-12-29T14:39:23.376Z,75.34
2023-12-29T14:41:26.505Z,74.65
2023-12-29T14:43:28.024Z,74.04
2023-12-29T14:45:29.774Z,72.64
2023-12-29T14:47:31.432Z,73.28
2023-12-29T14:49:33.284Z,73.51
2023-12-29T14:51:34.920Z,73.97
2023-12-29T14:53:36.484Z,74.15
2023-12-29T14:55:38.424Z,74.04
2023-12-29T14:57:41.337Z,74.11
2023-12-29T14:59:42.869Z,74.66
2023-12-29T15:01:44.449Z,75.43
2023-12-29T15:03:46.236Z,75.13
2023-12-29T15:05:48.302Z,74.87
2023-12-29T15:07:49.863Z,74.68
2023-12-29T15:09:51.406Z,74.60
2023-12-29T15:11:52.978Z,74.51
2023-12-29T15:13:55.966Z,74.47
2023-12-29T15:15:58.663Z,74.10
2023-12-29T15:18:00.571Z,73.93
2023-12-29T15:20:02.454Z,73.76
2023-12-29T15:22:04.119Z,73.33
2023-12-29T15:24:06.281Z,73.32
2023-12-29T15:26:07.888Z,73.28
2023-12-29T15:28:09.528Z,73.53
2023-12-29T15:30:13.019Z,73.16
2023-12-29T15:32:14.704Z,73.05
2023-12-29T15:34:16.318Z,72.95
2023-12-29T15:36:17.893Z,72.83
2023-12-29T15:38:19.427Z,72.29
2023-12-29T15:40:21.083Z,72.50
2023-12-29T15:42:22.672Z,73.06
2023-12-29T15:44:24.217Z,72.69
2023-12-29T15:46:27.341Z,72.18
2023-12-29T15:48:29.011Z,72.04
2023-12-29T15:50:30.700Z,71.82
2023-12-29T15:52:32.238Z,71.30
2023-12-29T15:54:33.746Z,71.15
2023-12-29T15:56:35.370Z,70.93
2023-12-29T15:58:36.970Z,70.66
2023-12-29T16:00:38.541Z,70.48
2023-12-29T16:02:41.473Z,70.65
2023-12-29T16:04:43.067Z,71.04
2023-12-29T16:06:44.662Z,70.61
2023-12-29T16:08:46.262Z,70.74
2023-12-29T16:10:47.820Z,71.07
2023-12-29T16:12:49.441Z,71.29
2023-12-29T16:14:51.062Z,71.02
2023-12-29T16:16:52.571Z,71.64
2023-12-29T16:18:55.525Z,71.29
2023-12-29T16:20:57.440Z,71.54
2023-12-29T16:22:59.013Z,71.92
2023-12-29T16:25:00.605Z,71.66
2023-12-29T16:27:02.193Z,72.04
2023-12-29T16:29:04.060Z,72.33
2023-12-29T16:31:06.174Z,73.36
2023-12-29T16:33:07.887Z,74.38
2023-12-29T16:35:10.916Z,73.89
2023-12-29T16:37:12.526Z,74.67
2023-12-29T16:39:14.063Z,74.73
2023-12-29T16:41:16.602Z,75.10
2023-12-29T16:43:18.175Z,75.23
2023-12-29T16:45:19.686Z,74.76
2023-12-29T16:47:21.250Z,75.02
2023-12-29T16:49:22.946Z,74.68
2023-12-29T16:51:25.951Z,75.88
2023-12-29T16:53:27.594Z,76.33
2023-12-29T16:55:29.181Z,76.49
2023-12-29T16:57:30.716Z,76.44
2023-12-29T16:59:32.312Z,76.39
2023-12-29T17:01:34.249Z,76.97
2023-12-29T17:03:35.938Z,76.85
2023-12-29T17:05:37.540Z,78.47
2023-12-29T17:07:40.503Z,78.27
2023-12-29T17:09:42.142Z,78.34
2023-12-29T17:11:44.374Z,78.99
2023-12-29T17:13:46.309Z,78.97
2023-12-29T17:15:47.978Z,81.44
2023-12-29T17:17:49.599Z,79.17
2023-12-29T17:19:51.314Z,79.21
2023-12-29T17:21:52.940Z,78.84
2023-12-29T17:23:55.863Z,79.08
2023-12-29T17:25:59.383Z,78.58
2023-12-29T17:28:01.200Z,79.55
2023-12-29T17:30:02.829Z,79.02
2023-12-29T17:32:04.892Z,79.71
2023-12-29T17:34:06.532Z,80.27
2023-12-29T17:36:09.260Z,80.11
2023-12-29T17:38:10.799Z,80.42
2023-12-29T17:40:13.934Z,80.81
2023-12-29T17:42:16.086Z,80.50
2023-12-29T17:44:17.676Z,81.91
2023-12-29T17:46:19.343Z,82.91
2023-12-29T17:48:20.909Z,82.14
2023-12-29T17:50:22.567Z,82.42
2023-12-29T17:52:24.216Z,83.93
2023-12-29T17:54:25.786Z,83.21
2023-12-29T17:56:28.714Z,83.52
2023-12-29T17:58:30.292Z,84.50
2023-12-29T18:00:31.899Z,85.38
2023-12-29T18:02:33.508Z,85.15
2023-12-29T18:04:35.199Z,84.84
2023-12-29T18:06:36.836Z,85.74
2023-12-29T18:08:39.498Z,85.01
2023-12-29T18:10:41.273Z,84.43
2023-12-29T18:12:44.250Z,85.08
2023-12-29T18:14:45.823Z,84.44
2023-12-29T18:16:47.337Z,85.35
2023-12-29T18:18:48.972Z,85.03
2023-12-29T18:20:50.581Z,85.78
2023-12-29T18:22:52.198Z,87.22
2023-12-29T18:24:53.767Z,87.86
2023-12-29T18:26:55.313Z,87.38
2023-12-29T18:28:58.210Z,88.22
2023-12-29T18:31:02.308Z,87.72
2023-12-29T18:33:04.265Z,88.35
2023-12-29T18:35:06.559Z,88.84
2023-12-29T18:37:09.497Z,87.31
2023-12-29T18:39:11.325Z,87.45
2023-12-29T18:41:12.850Z,87.51
2023-12-29T18:43:14.432Z,88.52
2023-12-29T18:45:17.497Z,88.53
2023-12-29T18:47:19.075Z,87.78
2023-12-29T18:49:20.826Z,89.71
2023-12-29T18:51:22.556Z,88.75
2023-12-29T18:53:24.308Z,89.42
2023-12-29T18:55:26.039Z,88.47
2023-12-29T18:57:27.721Z,89.19
2023-12-29T18:59:29.327Z,89.58
2023-12-29T19:01:32.292Z,90.95
2023-12-29T19:03:34.001Z,89.76
2023-12-29T19:05:35.658Z,89.64
2023-12-29T19:07:37.245Z,91.91
2023-12-29T19:09:38.782Z,92.92
2023-12-29T19:11:40.570Z,93.67
2023-12-29T19:13:42.084Z,96.58
2023-12-29T19:15:43.784Z,96.33
2023-12-29T19:17:46.792Z,96.31
2023-12-29T19:19:48.362Z,95.66
2023-12-29T19:21:50.231Z,96.10
2023-12-29T19:23:51.840Z,96.71
2023-12-29T19:25:53.402Z,97.33
2023-12-29T19:27:55.009Z,97.04
2023-12-29T19:29:56.534Z,97.13
2023-12-29T19:31:58.224Z,97.47
2023-12-29T19:34:01.325Z,98.88
2023-12-29T19:36:03.158Z,97.49
2023-12-29T19:38:04.705Z,96.13
2023-12-29T19:40:07.364Z,95.34
2023-12-29T19:42:09.259Z,94.72
2023-12-29T19:44:10.997Z,94.00
2023-12-29T19:46:12.618Z,92.68
2023-12-29T19:48:14.347Z,91.08
2023-12-29T19:50:17.387Z,87.36
2023-12-29T19:52:19.025Z,85.04
2023-12-29T19:54:20.687Z,83.87
2023-12-29T19:56:24.030Z,82.14
2023-12-29T19:58:25.801Z,82.07
2023-12-29T20:00:27.355Z,81.42
2023-12-29T20:02:28.936Z,80.97
2023-12-29T20:04:30.538Z,80.85
2023-12-29T20:06:33.472Z,80.64
2023-12-29T20:08:35.033Z,80.46
2023-12-29T20:10:37.678Z,80.48
2023-12-29T20:12:39.196Z,80.61
2023-12-29T20:14:40.727Z,80.30
2023-12-29T20:16:42.234Z,81.09
2023-12-29T20:18:43.845Z,81.27
2023-12-29T20:20:46.297Z,80.90
2023-12-29T20:22:49.303Z,81.13
2023-12-29T20:24:50.893Z,80.69
2023-12-29T20:26:52.433Z,80.94
2023-12-29T20:28:54.927Z,80.64
2023-12-29T20:30:56.597Z,80.76
2023-12-29T20:32:58.369Z,80.45
2023-12-29T20:35:00.065Z,80.40
2023-12-29T20:37:01.766Z,79.26
2023-12-29T20:39:04.692Z,80.49
2023-12-29T20:41:06.245Z,80.53
2023-12-29T20:43:07.766Z,81.24
2023-12-29T20:45:09.732Z,80.61
2023-12-29T20:47:11.244Z,81.28
2023-12-29T20:49:12.883Z,81.18
2023-12-29T20:51:17.177Z,80.91
2023-12-29T20:53:19.033Z,80.61
2023-12-29T20:55:21.945Z,81.51
2023-12-29T20:57:23.451Z,81.87
2023-12-29T20:59:25.051Z,81.71
2023-12-29T21:01:26.740Z,82.13
2023-12-29T21:03:28.362Z,82.01
2023-12-29T21:05:29.925Z,81.97
2023-12-29T21:07:31.537Z,81.89
2023-12-29T21:09:33.061Z,82.85
2023-12-29T21:11:35.915Z,82.57
2023-12-29T21:13:37.547Z,82.56
2023-12-29T21:15:39.286Z,82.55
2023-12-29T21:17:40.935Z,82.79
2023-12-29T21:19:42.656Z,83.91
2023-12-29T21:21:44.383Z,83.84
2023-12-29T21:23:46.270Z,83.42
2023-12-29T21:25:48.205Z,83.60
2023-12-29T21:27:51.104Z,84.35
2023-12-29T21:29:52.636Z,84.87
2023-12-29T21:31:54.335Z,86.03
2023-12-29T21:33:56.273Z,86.00
2023-12-29T21:35:57.915Z,86.42
2023-12-29T21:37:59.463Z,85.55
2023-12-29T21:40:01.064Z,85.90
2023-12-29T21:42:02.622Z,86.76
2023-12-29T21:44:05.589Z,87.70
2023-12-29T21:46:07.152Z,88.26
2023-12-29T21:48:08.969Z,87.38
2023-12-29T21:50:10.944Z,88.74
2023-12-29T21:52:12.526Z,88.74
2023-12-29T21:54:14.134Z,89.45
2023-12-29T21:56:15.664Z,88.47
2023-12-29T21:58:17.150Z,89.71
2023-12-29T22:00:20.274Z,89.46
2023-12-29T22:02:21.791Z,90.08
2023-12-29T22:04:24.633Z,90.22
2023-12-29T22:06:26.979Z,90.36
2023-12-29T22:08:28.524Z,90.81
2023-12-29T22:10:30.129Z,90.90
2023-12-29T22:12:31.815Z,90.79
2023-12-29T22:14:33.512Z,90.85
2023-12-29T22:16:36.585Z,90.81
2023-12-29T22:18:38.351Z,91.38
2023-12-29T22:20:39.933Z,91.21
2023-12-29T22:22:41.455Z,90.58
2023-12-29T22:24:42.954Z,91.30
2023-12-29T22:26:44.481Z,91.23
2023-12-29T22:28:48.520Z,91.12
2023-12-29T22:30:50.239Z,90.92
2023-12-29T22:32:53.362Z,91.22
2023-12-29T22:34:54.979Z,90.98
2023-12-29T22:36:56.870Z,91.51
2023-12-29T22:38:58.402Z,91.17
2023-12-29T22:41:00.240Z,91.47
2023-12-29T22:43:02.035Z,90.72
2023-12-29T22:45:04.782Z,91.89
2023-12-29T22:47:06.437Z,92.31
2023-12-29T22:49:09.489Z,92.27
2023-12-29T22:51:11.524Z,92.13
2023-12-29T22:53:13.118Z,92.38
2023-12-29T22:55:14.904Z,92.48
2023-12-29T22:57:16.412Z,92.47
2023-12-29T22:59:18.424Z,93.00
2023-12-29T23:01:20.160Z,92.93
2023-12-29T23:03:22.006Z,93.31
2023-12-29T23:05:25.094Z,93.00
2023-12-29T23:07:26.748Z,93.27
2023-12-29T23:09:29.050Z,94.09
2023-12-29T23:11:30.662Z,93.09
2023-12-29T23:13:32.390Z,93.55
2023-12-29T23:15:34.051Z,93.53
2023-12-29T23:17:35.598Z,94.09
2023-12-29T23:19:37.891Z,94.03
2023-12-29T23:21:40.910Z,94.44
2023-12-29T23:23:42.447Z,93.59
2023-12-29T23:25:44.024Z,94.69
2023-12-29T23:27:45.745Z,94.28
2023-12-29T23:29:47.735Z,94.46
2023-12-29T23:31:50.199Z,94.07
2023-12-29T23:33:51.940Z,94.67
2023-12-29T23:35:53.778Z,95.32
2023-12-29T23:37:56.679Z,95.29
2023-12-29T23:39:58.261Z,95.00
2023-12-29T23:41:59.787Z,95.54
2023-12-29T23:44:02.213Z,94.88
2023-12-29T23:46:03.972Z,95.41
2023-12-29T23:48:06.223Z,96.02
2023-12-29T23:50:08.481Z,95.88
2023-12-29T23:52:10.011Z,95.38
2023-12-29T23:54:13.081Z,95.67
2023-12-29T23:56:14.592Z,96.05
2023-12-29T23:58:16.233Z,95.60
